sensor_id;sensor_type;location;lat;lon;timestamp;pressure;altitude;pressure_sealevel;temperature;humidity
72395;BME280;60384;48.152;11.614;2023-07-31T00:02:16;95865.56;;;19.30;72.29
72395;BME280;60384;48.152;11.614;2023-07-31T00:05:17;95853.50;;;19.27;72.36
72395;BME280;60384;48.152;11.614;2023-07-31T00:08:20;95851.91;;;19.23;72.22
72395;BME280;60384;48.152;11.614;2023-07-31T00:11:22;95860.34;;;19.18;72.28
72395;BME280;60384;48.152;11.614;2023-07-31T00:14:24;95848.69;;;19.14;72.50
72395;BME280;60384;48.152;11.614;2023-07-31T00:17:25;95857.19;;;19.12;72.25
72395;BME280;60384;48.152;11.614;2023-07-31T00:20:27;95847.06;;;19.09;72.44
72395;BME280;60384;48.152;11.614;2023-07-31T00:23:30;95848.19;;;19.05;72.36
72395;BME280;60384;48.152;11.614;2023-07-31T00:26:31;95850.06;;;19.01;72.12
72395;BME280;60384;48.152;11.614;2023-07-31T00:29:33;95847.69;;;18.95;72.43
72395;BME280;60384;48.152;11.614;2023-07-31T00:32:35;95846.47;;;18.93;72.35
72395;BME280;60384;48.152;11.614;2023-07-31T00:35:36;95844.50;;;18.90;72.30
72395;BME280;60384;48.152;11.614;2023-07-31T00:38:39;95835.59;;;18.89;72.31
72395;BME280;60384;48.152;11.614;2023-07-31T00:41:41;95842.19;;;18.92;72.35
72395;BME280;60384;48.152;11.614;2023-07-31T00:44:45;95844.91;;;18.92;72.19
72395;BME280;60384;48.152;11.614;2023-07-31T00:47:47;95836.00;;;18.91;72.27
72395;BME280;60384;48.152;11.614;2023-07-31T00:50:48;95833.69;;;18.90;72.13
72395;BME280;60384;48.152;11.614;2023-07-31T00:53:51;95832.91;;;18.89;72.13
72395;BME280;60384;48.152;11.614;2023-07-31T00:56:56;95828.63;;;18.88;72.01
72395;BME280;60384;48.152;11.614;2023-07-31T00:59:57;95828.19;;;18.86;71.98
72395;BME280;60384;48.152;11.614;2023-07-31T01:02:59;95830.13;;;18.86;72.02
72395;BME280;60384;48.152;11.614;2023-07-31T01:06:04;95831.66;;;18.83;72.19
72395;BME280;60384;48.152;11.614;2023-07-31T01:09:11;95825.44;;;18.83;72.40
72395;BME280;60384;48.152;11.614;2023-07-31T01:12:18;95825.41;;;18.79;71.98
72395;BME280;60384;48.152;11.614;2023-07-31T01:15:21;95819.22;;;18.79;72.15
72395;BME280;60384;48.152;11.614;2023-07-31T01:18:23;95819.56;;;18.77;71.91
72395;BME280;60384;48.152;11.614;2023-07-31T01:21:40;95814.16;;;18.77;71.92
72395;BME280;60384;48.152;11.614;2023-07-31T01:24:48;95815.66;;;18.75;72.09
72395;BME280;60384;48.152;11.614;2023-07-31T01:27:56;95809.44;;;18.74;72.05
72395;BME280;60384;48.152;11.614;2023-07-31T01:30:59;95811.81;;;18.76;71.98
72395;BME280;60384;48.152;11.614;2023-07-31T01:34:01;95797.09;;;18.73;72.08
72395;BME280;60384;48.152;11.614;2023-07-31T01:37:04;95800.50;;;18.70;72.08
72395;BME280;60384;48.152;11.614;2023-07-31T01:40:06;95798.94;;;18.69;72.26
72395;BME280;60384;48.152;11.614;2023-07-31T01:43:09;95792.34;;;18.67;72.19
72395;BME280;60384;48.152;11.614;2023-07-31T01:46:11;95799.69;;;18.66;72.05
72395;BME280;60384;48.152;11.614;2023-07-31T01:49:12;95789.19;;;18.61;72.17
72395;BME280;60384;48.152;11.614;2023-07-31T01:52:14;95796.88;;;18.59;72.10
72395;BME280;60384;48.152;11.614;2023-07-31T01:55:16;95796.50;;;18.61;72.35
72395;BME280;60384;48.152;11.614;2023-07-31T01:58:19;95796.16;;;18.62;72.18
72395;BME280;60384;48.152;11.614;2023-07-31T02:01:20;95789.56;;;18.63;72.32
72395;BME280;60384;48.152;11.614;2023-07-31T02:04:22;95792.28;;;18.63;72.12
72395;BME280;60384;48.152;11.614;2023-07-31T02:07:24;95786.47;;;18.61;72.29
72395;BME280;60384;48.152;11.614;2023-07-31T02:10:25;95790.75;;;18.62;71.90
72395;BME280;60384;48.152;11.614;2023-07-31T02:13:28;95779.13;;;18.62;72.14
72395;BME280;60384;48.152;11.614;2023-07-31T02:16:30;95771.81;;;18.62;72.01
72395;BME280;60384;48.152;11.614;2023-07-31T02:19:31;95774.50;;;18.62;72.02
72395;BME280;60384;48.152;11.614;2023-07-31T02:22:33;95771.81;;;18.62;72.07
72395;BME280;60384;48.152;11.614;2023-07-31T02:25:36;95768.25;;;18.58;72.14
72395;BME280;60384;48.152;11.614;2023-07-31T02:28:39;95763.97;;;18.57;71.93
72395;BME280;60384;48.152;11.614;2023-07-31T02:31:43;95763.97;;;18.57;71.92
72395;BME280;60384;48.152;11.614;2023-07-31T02:34:44;95760.91;;;18.58;72.00
72395;BME280;60384;48.152;11.614;2023-07-31T02:37:46;95765.97;;;18.60;72.16
72395;BME280;60384;48.152;11.614;2023-07-31T02:40:47;95752.78;;;18.58;71.94
72395;BME280;60384;48.152;11.614;2023-07-31T02:43:52;95746.25;;;18.60;71.93
72395;BME280;60384;48.152;11.614;2023-07-31T02:46:54;95747.03;;;18.60;71.93
72395;BME280;60384;48.152;11.614;2023-07-31T02:49:55;95742.75;;;18.59;72.02
72395;BME280;60384;48.152;11.614;2023-07-31T02:52:57;95738.47;;;18.58;72.14
72395;BME280;60384;48.152;11.614;2023-07-31T02:55:59;95738.88;;;18.56;72.06
72395;BME280;60384;48.152;11.614;2023-07-31T02:59:02;95747.75;;;18.57;72.07
72395;BME280;60384;48.152;11.614;2023-07-31T03:02:03;95737.22;;;18.52;72.07
72395;BME280;60384;48.152;11.614;2023-07-31T03:05:06;95745.63;;;18.47;72.12
72395;BME280;60384;48.152;11.614;2023-07-31T03:08:07;95740.97;;;18.44;72.05
72395;BME280;60384;48.152;11.614;2023-07-31T03:11:09;95735.50;;;18.40;71.99
72395;BME280;60384;48.152;11.614;2023-07-31T03:14:12;95749.34;;;18.35;72.13
72395;BME280;60384;48.152;11.614;2023-07-31T03:17:13;95735.34;;;18.30;72.39
72395;BME280;60384;48.152;11.614;2023-07-31T03:20:15;95736.09;;;18.27;72.06
72395;BME280;60384;48.152;11.614;2023-07-31T03:23:17;95731.03;;;18.25;72.40
72395;BME280;60384;48.152;11.614;2023-07-31T03:26:18;95733.72;;;18.25;72.42
72395;BME280;60384;48.152;11.614;2023-07-31T03:29:21;95735.22;;;18.23;72.13
72395;BME280;60384;48.152;11.614;2023-07-31T03:32:23;95739.81;;;18.18;72.04
72395;BME280;60384;48.152;11.614;2023-07-31T03:35:25;95740.53;;;18.15;72.19
72395;BME280;60384;48.152;11.614;2023-07-31T03:38:27;95749.38;;;18.12;72.22
72395;BME280;60384;48.152;11.614;2023-07-31T03:41:29;95747.41;;;18.09;71.97
72395;BME280;60384;48.152;11.614;2023-07-31T03:44:32;95750.41;;;18.04;72.46
72395;BME280;60384;48.152;11.614;2023-07-31T03:47:34;95743.78;;;18.02;72.27
72395;BME280;60384;48.152;11.614;2023-07-31T03:50:37;95747.63;;;18.01;72.30
72395;BME280;60384;48.152;11.614;2023-07-31T03:53:38;95754.25;;;18.03;72.33
72395;BME280;60384;48.152;11.614;2023-07-31T03:56:40;95752.34;;;18.04;72.25
72395;BME280;60384;48.152;11.614;2023-07-31T03:59:43;95753.13;;;18.04;72.26
72395;BME280;60384;48.152;11.614;2023-07-31T04:02:45;95749.97;;;18.02;72.17
72395;BME280;60384;48.152;11.614;2023-07-31T04:05:46;95746.50;;;18.02;71.88
72395;BME280;60384;48.152;11.614;2023-07-31T04:08:48;95746.84;;;18.00;72.13
72395;BME280;60384;48.152;11.614;2023-07-31T04:11:49;95746.44;;;17.98;71.74
72395;BME280;60384;48.152;11.614;2023-07-31T04:14:52;95738.69;;;17.97;72.00
72395;BME280;60384;48.152;11.614;2023-07-31T04:17:54;95736.78;;;17.97;72.03
72395;BME280;60384;48.152;11.614;2023-07-31T04:20:56;95734.03;;;17.94;72.07
72395;BME280;60384;48.152;11.614;2023-07-31T04:23:58;95741.69;;;17.92;72.28
72395;BME280;60384;48.152;11.614;2023-07-31T04:27:00;95738.94;;;17.88;71.88
72395;BME280;60384;48.152;11.614;2023-07-31T04:30:03;95739.31;;;17.87;72.20
72395;BME280;60384;48.152;11.614;2023-07-31T04:33:05;95735.38;;;17.84;72.16
72395;BME280;60384;48.152;11.614;2023-07-31T04:36:06;95739.22;;;17.83;72.35
72395;BME280;60384;48.152;11.614;2023-07-31T04:39:08;95744.63;;;17.83;71.74
72395;BME280;60384;48.152;11.614;2023-07-31T04:42:10;95730.28;;;17.79;72.13
72395;BME280;60384;48.152;11.614;2023-07-31T04:45:13;95731.81;;;17.77;72.23
72395;BME280;60384;48.152;11.614;2023-07-31T04:48:15;95729.84;;;17.77;72.10
72395;BME280;60384;48.152;11.614;2023-07-31T04:51:16;95727.16;;;17.77;72.10
72395;BME280;60384;48.152;11.614;2023-07-31T04:54:18;95726.81;;;17.79;72.04
72395;BME280;60384;48.152;11.614;2023-07-31T04:57:19;95730.72;;;17.81;72.06
72395;BME280;60384;48.152;11.614;2023-07-31T05:00:22;95729.94;;;17.81;72.17
72395;BME280;60384;48.152;11.614;2023-07-31T05:03:24;95733.78;;;17.80;71.98
72395;BME280;60384;48.152;11.614;2023-07-31T05:06:25;95723.75;;;17.80;71.85
72395;BME280;60384;48.152;11.614;2023-07-31T05:09:27;95723.75;;;17.80;72.09
72395;BME280;60384;48.152;11.614;2023-07-31T05:12:28;95730.72;;;17.81;71.93
72395;BME280;60384;48.152;11.614;2023-07-31T05:15:31;95723.00;;;17.83;72.18
72395;BME280;60384;48.152;11.614;2023-07-31T05:18:33;95729.19;;;17.84;71.96
72395;BME280;60384;48.152;11.614;2023-07-31T05:21:35;95735.47;;;17.88;72.15
72395;BME280;60384;48.152;11.614;2023-07-31T05:24:36;95735.50;;;17.91;71.65
72395;BME280;60384;48.152;11.614;2023-07-31T05:27:38;95735.22;;;17.96;71.96
72395;BME280;60384;48.152;11.614;2023-07-31T05:30:41;95723.25;;;17.97;71.79
72395;BME280;60384;48.152;11.614;2023-07-31T05:33:42;95725.97;;;17.97;71.90
72395;BME280;60384;48.152;11.614;2023-07-31T05:36:44;95724.88;;;18.02;71.87
72395;BME280;60384;48.152;11.614;2023-07-31T05:39:45;95731.88;;;18.06;71.80
72395;BME280;60384;48.152;11.614;2023-07-31T05:42:47;95721.94;;;18.10;71.63
72395;BME280;60384;48.152;11.614;2023-07-31T05:45:50;95724.31;;;18.15;71.79
72395;BME280;60384;48.152;11.614;2023-07-31T05:48:52;95717.47;;;18.22;71.62
72395;BME280;60384;48.152;11.614;2023-07-31T05:51:54;95716.72;;;18.25;71.73
72395;BME280;60384;48.152;11.614;2023-07-31T05:54:55;95727.59;;;18.28;71.52
72395;BME280;60384;48.152;11.614;2023-07-31T05:57:57;95724.16;;;18.31;71.59
72395;BME280;60384;48.152;11.614;2023-07-31T06:00:59;95721.50;;;18.35;71.43
72395;BME280;60384;48.152;11.614;2023-07-31T06:04:02;95719.22;;;18.37;71.49
72395;BME280;60384;48.152;11.614;2023-07-31T06:07:04;95721.19;;;18.40;71.63
72395;BME280;60384;48.152;11.614;2023-07-31T06:10:06;95715.06;;;18.43;72.01
72395;BME280;60384;48.152;11.614;2023-07-31T06:13:08;95719.72;;;18.46;71.72
72395;BME280;60384;48.152;11.614;2023-07-31T06:16:11;95724.06;;;18.50;71.71
72395;BME280;60384;48.152;11.614;2023-07-31T06:19:13;95717.56;;;18.55;71.83
72395;BME280;60384;48.152;11.614;2023-07-31T06:22:14;95727.66;;;18.58;71.65
72395;BME280;60384;48.152;11.614;2023-07-31T06:25:16;95723.50;;;18.64;71.72
72395;BME280;60384;48.152;11.614;2023-07-31T06:28:17;95735.91;;;18.69;72.05
72395;BME280;60384;48.152;11.614;2023-07-31T06:31:20;95733.28;;;18.72;71.78
72395;BME280;60384;48.152;11.614;2023-07-31T06:34:23;95734.06;;;18.73;72.01
72395;BME280;60384;48.152;11.614;2023-07-31T06:37:24;95732.53;;;18.75;72.01
72395;BME280;60384;48.152;11.614;2023-07-31T06:40:26;95738.38;;;18.77;71.81
72395;BME280;60384;48.152;11.614;2023-07-31T06:43:28;95729.88;;;18.79;71.88
72395;BME280;60384;48.152;11.614;2023-07-31T06:46:31;95732.16;;;18.77;72.00
72395;BME280;60384;48.152;11.614;2023-07-31T06:49:32;95735.66;;;18.77;71.91
72395;BME280;60384;48.152;11.614;2023-07-31T06:52:34;95736.84;;;18.80;71.98
72395;BME280;60384;48.152;11.614;2023-07-31T06:55:36;95726.78;;;18.80;72.21
72395;BME280;60384;48.152;11.614;2023-07-31T06:58:37;95723.38;;;18.83;72.25
72395;BME280;60384;48.152;11.614;2023-07-31T07:01:40;95717.97;;;18.87;71.88
72395;BME280;60384;48.152;11.614;2023-07-31T07:04:42;95711.84;;;18.90;72.12
72395;BME280;60384;48.152;11.614;2023-07-31T07:07:44;95709.53;;;18.92;72.30
72395;BME280;60384;48.152;11.614;2023-07-31T07:10:46;95723.06;;;18.92;72.21
72395;BME280;60384;48.152;11.614;2023-07-31T07:13:48;95718.44;;;18.92;71.91
72395;BME280;60384;48.152;11.614;2023-07-31T07:16:52;95719.63;;;18.95;71.99
72395;BME280;60384;48.152;11.614;2023-07-31T07:19:53;95719.66;;;18.98;72.18
72395;BME280;60384;48.152;11.614;2023-07-31T07:22:56;95717.38;;;19.01;71.89
72395;BME280;60384;48.152;11.614;2023-07-31T07:25:57;95716.63;;;19.04;71.93
72395;BME280;60384;48.152;11.614;2023-07-31T07:28:59;95707.78;;;19.07;71.84
72395;BME280;60384;48.152;11.614;2023-07-31T07:32:04;95714.00;;;19.11;72.10
72395;BME280;60384;48.152;11.614;2023-07-31T07:35:06;95716.72;;;19.11;71.93
72395;BME280;60384;48.152;11.614;2023-07-31T07:38:07;95713.25;;;19.14;71.85
72395;BME280;60384;48.152;11.614;2023-07-31T07:41:09;95706.69;;;19.15;72.01
72395;BME280;60384;48.152;11.614;2023-07-31T07:44:11;95713.31;;;19.17;71.85
72395;BME280;60384;48.152;11.614;2023-07-31T07:47:14;95702.16;;;19.22;71.84
72395;BME280;60384;48.152;11.614;2023-07-31T07:50:15;95697.19;;;19.28;71.84
72395;BME280;60384;48.152;11.614;2023-07-31T07:53:17;95706.16;;;19.35;71.88
72395;BME280;60384;48.152;11.614;2023-07-31T07:56:18;95693.44;;;19.39;71.72
72395;BME280;60384;48.152;11.614;2023-07-31T07:59:20;95681.47;;;19.44;71.74
72395;BME280;60384;48.152;11.614;2023-07-31T08:02:23;95673.44;;;19.48;71.79
72395;BME280;60384;48.152;11.614;2023-07-31T08:05:24;95667.25;;;19.51;71.75
72395;BME280;60384;48.152;11.614;2023-07-31T08:08:26;95669.19;;;19.54;71.80
72395;BME280;60384;48.152;11.614;2023-07-31T08:11:27;95675.03;;;19.56;71.75
72395;BME280;60384;48.152;11.614;2023-07-31T08:14:29;95675.03;;;19.59;71.81
72395;BME280;60384;48.152;11.614;2023-07-31T08:17:32;95679.38;;;19.64;71.73
72395;BME280;60384;48.152;11.614;2023-07-31T08:20:34;95679.81;;;19.69;71.53
72395;BME280;60384;48.152;11.614;2023-07-31T08:23:35;95685.25;;;19.76;71.62
72395;BME280;60384;48.152;11.614;2023-07-31T08:26:37;95676.03;;;19.81;71.51
72395;BME280;60384;48.152;11.614;2023-07-31T08:29:38;95671.41;;;19.85;71.54
72395;BME280;60384;48.152;11.614;2023-07-31T08:32:41;95669.09;;;19.87;71.59
72395;BME280;60384;48.152;11.614;2023-07-31T08:35:42;95675.34;;;19.91;71.66
72395;BME280;60384;48.152;11.614;2023-07-31T08:38:44;95678.06;;;19.95;71.70
72395;BME280;60384;48.152;11.614;2023-07-31T08:41:46;95677.69;;;19.96;71.67
72395;BME280;60384;48.152;11.614;2023-07-31T08:44:48;95673.47;;;19.99;71.72
72395;BME280;60384;48.152;11.614;2023-07-31T08:47:52;95669.19;;;19.98;71.70
72395;BME280;60384;48.152;11.614;2023-07-31T08:50:53;95665.69;;;19.97;71.63
72395;BME280;60384;48.152;11.614;2023-07-31T08:53:55;95668.41;;;19.97;71.81
72395;BME280;60384;48.152;11.614;2023-07-31T08:56:57;95667.63;;;19.97;71.91
72395;BME280;60384;48.152;11.614;2023-07-31T09:00:00;95666.06;;;19.96;71.68
72395;BME280;60384;48.152;11.614;2023-07-31T09:03:03;95666.06;;;19.96;71.64
72395;BME280;60384;48.152;11.614;2023-07-31T09:06:07;95660.28;;;19.97;71.84
72395;BME280;60384;48.152;11.614;2023-07-31T09:09:09;95673.47;;;20.02;71.90
72395;BME280;60384;48.152;11.614;2023-07-31T09:12:11;95670.00;;;20.05;71.64
72395;BME280;60384;48.152;11.614;2023-07-31T09:15:13;95670.03;;;20.09;71.38
72395;BME280;60384;48.152;11.614;2023-07-31T09:18:16;95666.97;;;20.17;71.42
72395;BME280;60384;48.152;11.614;2023-07-31T09:21:20;95660.84;;;20.28;71.51
72395;BME280;60384;48.152;11.614;2023-07-31T09:24:24;95663.25;;;20.33;71.26
72395;BME280;60384;48.152;11.614;2023-07-31T09:27:26;95656.31;;;20.39;71.21
72395;BME280;60384;48.152;11.614;2023-07-31T09:30:28;95646.19;;;20.39;71.23
72395;BME280;60384;48.152;11.614;2023-07-31T09:33:31;95650.09;;;20.42;71.25
72395;BME280;60384;48.152;11.614;2023-07-31T09:36:32;95650.88;;;20.42;71.47
72395;BME280;60384;48.152;11.614;2023-07-31T09:39:36;95652.44;;;20.43;71.52
72395;BME280;60384;48.152;11.614;2023-07-31T09:42:47;95653.59;;;20.42;71.44
72395;BME280;60384;48.152;11.614;2023-07-31T09:45:54;95644.69;;;20.42;71.32
72395;BME280;60384;48.152;11.614;2023-07-31T09:49:04;95649.31;;;20.41;71.57
72395;BME280;60384;48.152;11.614;2023-07-31T09:52:09;95645.47;;;20.46;71.50
72395;BME280;60384;48.152;11.614;2023-07-31T09:55:13;95641.59;;;20.47;71.36
72395;BME280;60384;48.152;11.614;2023-07-31T09:58:14;95634.25;;;20.47;71.35
72395;BME280;60384;48.152;11.614;2023-07-31T10:01:16;95628.81;;;20.51;71.34
72395;BME280;60384;48.152;11.614;2023-07-31T10:04:19;95616.06;;;20.55;71.21
72395;BME280;60384;48.152;11.614;2023-07-31T10:07:25;95607.91;;;20.62;71.31
72395;BME280;60384;48.152;11.614;2023-07-31T10:10:30;95610.66;;;20.69;71.11
72395;BME280;60384;48.152;11.614;2023-07-31T10:13:32;95606.84;;;20.77;71.16
72395;BME280;60384;48.152;11.614;2023-07-31T10:16:34;95591.31;;;20.81;71.09
72395;BME280;60384;48.152;11.614;2023-07-31T10:19:37;95588.22;;;20.83;70.88
72395;BME280;60384;48.152;11.614;2023-07-31T10:22:40;95578.13;;;20.80;70.85
72395;BME280;60384;48.152;11.614;2023-07-31T10:25:42;95576.59;;;20.82;70.84
72395;BME280;60384;48.152;11.614;2023-07-31T10:28:44;95576.59;;;20.93;70.74
72395;BME280;60384;48.152;11.614;2023-07-31T10:31:48;95565.75;;;21.03;70.80
72395;BME280;60384;48.152;11.614;2023-07-31T10:34:51;95563.84;;;21.11;70.32
72395;BME280;60384;48.152;11.614;2023-07-31T10:37:53;95573.94;;;21.25;70.69
72395;BME280;60384;48.152;11.614;2023-07-31T10:40:54;95558.84;;;21.34;70.40
72395;BME280;60384;48.152;11.614;2023-07-31T10:44:08;95560.00;;;21.44;70.38
72395;BME280;60384;48.152;11.614;2023-07-31T10:47:10;95570.88;;;21.51;70.81
72395;BME280;60384;48.152;11.614;2023-07-31T10:50:20;95561.16;;;21.54;70.31
72395;BME280;60384;48.152;11.614;2023-07-31T10:53:24;95557.66;;;21.57;70.45
72395;BME280;60384;48.152;11.614;2023-07-31T10:56:26;95558.03;;;21.59;70.68
72395;BME280;60384;48.152;11.614;2023-07-31T10:59:27;95563.09;;;21.60;70.38
72395;BME280;60384;48.152;11.614;2023-07-31T11:02:35;95553.38;;;21.56;70.48
72395;BME280;60384;48.152;11.614;2023-07-31T11:05:42;95551.44;;;21.56;70.77
72395;BME280;60384;48.152;11.614;2023-07-31T11:08:45;95549.50;;;21.64;70.41
72395;BME280;60384;48.152;11.614;2023-07-31T11:11:47;95550.63;;;21.77;70.10
72395;BME280;60384;48.152;11.614;2023-07-31T11:14:53;95550.63;;;21.88;69.86
72395;BME280;60384;48.152;11.614;2023-07-31T11:17:55;95535.47;;;21.97;70.01
72395;BME280;60384;48.152;11.614;2023-07-31T11:20:59;95540.13;;;22.07;70.12
72395;BME280;60384;48.152;11.614;2023-07-31T11:24:01;95538.53;;;22.17;70.02
72395;BME280;60384;48.152;11.614;2023-07-31T11:27:07;95545.13;;;22.19;70.03
72395;BME280;60384;48.152;11.614;2023-07-31T11:30:09;95539.28;;;22.24;69.74
72395;BME280;60384;48.152;11.614;2023-07-31T11:33:11;95519.44;;;22.31;69.97
72395;BME280;60384;48.152;11.614;2023-07-31T11:36:18;95523.69;;;22.36;70.16
72395;BME280;60384;48.152;11.614;2023-07-31T11:39:20;95516.25;;;22.43;69.91
72395;BME280;60384;48.152;11.614;2023-07-31T11:42:22;95509.25;;;22.49;69.67
72395;BME280;60384;48.152;11.614;2023-07-31T11:45:24;95515.03;;;22.51;69.58
72395;BME280;60384;48.152;11.614;2023-07-31T11:48:27;95510.00;;;22.53;69.87
72395;BME280;60384;48.152;11.614;2023-07-31T11:51:30;95511.13;;;22.59;69.73
72395;BME280;60384;48.152;11.614;2023-07-31T11:54:32;95483.88;;;22.59;69.50
72395;BME280;60384;48.152;11.614;2023-07-31T11:57:34;95480.38;;;22.59;69.59
72395;BME280;60384;48.152;11.614;2023-07-31T12:00:35;95478.03;;;22.64;69.59
72395;BME280;60384;48.152;11.614;2023-07-31T12:03:37;95478.78;;;22.72;69.53
72395;BME280;60384;48.152;11.614;2023-07-31T12:06:40;95470.94;;;22.81;69.50
72395;BME280;60384;48.152;11.614;2023-07-31T12:09:50;95470.47;;;22.90;69.88
72395;BME280;60384;48.152;11.614;2023-07-31T12:12:55;95459.91;;;22.99;69.62
72395;BME280;60384;48.152;11.614;2023-07-31T12:15:59;95453.19;;;23.11;69.79
72395;BME280;60384;48.152;11.614;2023-07-31T12:19:03;95448.75;;;23.27;69.65
72395;BME280;60384;48.152;11.614;2023-07-31T12:22:12;95439.63;;;23.44;69.63
72395;BME280;60384;48.152;11.614;2023-07-31T12:25:15;95434.09;;;23.55;69.86
72395;BME280;60384;48.152;11.614;2023-07-31T12:28:18;95437.56;;;23.59;69.91
72395;BME280;60384;48.152;11.614;2023-07-31T12:31:23;95425.84;;;23.62;70.03
72395;BME280;60384;48.152;11.614;2023-07-31T12:34:28;95417.88;;;23.78;69.92
72395;BME280;60384;48.152;11.614;2023-07-31T12:37:31;95413.25;;;24.06;69.73
72395;BME280;60384;48.152;11.614;2023-07-31T12:40:35;95428.91;;;24.32;69.74
72395;BME280;60384;48.152;11.614;2023-07-31T12:43:38;95411.56;;;24.46;69.52
72395;BME280;60384;48.152;11.614;2023-07-31T12:46:40;95409.59;;;24.46;69.95
72395;BME280;60384;48.152;11.614;2023-07-31T12:49:41;95409.34;;;24.37;70.10
72395;BME280;60384;48.152;11.614;2023-07-31T12:52:44;95402.84;;;24.27;70.02
72395;BME280;60384;48.152;11.614;2023-07-31T12:55:46;95400.22;;;24.17;70.06
72395;BME280;60384;48.152;11.614;2023-07-31T12:58:47;95389.00;;;24.11;70.22
72395;BME280;60384;48.152;11.614;2023-07-31T13:01:49;95393.53;;;24.25;69.93
72395;BME280;60384;48.152;11.614;2023-07-31T13:04:50;95399.66;;;24.59;69.84
72395;BME280;60384;48.152;11.614;2023-07-31T13:07:54;95390.63;;;24.62;70.05
72395;BME280;60384;48.152;11.614;2023-07-31T13:10:56;95386.81;;;24.56;70.02
72395;BME280;60384;48.152;11.614;2023-07-31T13:13:57;95392.84;;;24.44;69.95
72395;BME280;60384;48.152;11.614;2023-07-31T13:16:59;95387.19;;;24.32;69.87
72395;BME280;60384;48.152;11.614;2023-07-31T13:20:00;95386.16;;;24.22;69.65
72395;BME280;60384;48.152;11.614;2023-07-31T13:23:03;95387.59;;;24.30;69.61
72395;BME280;60384;48.152;11.614;2023-07-31T13:26:05;95368.28;;;24.44;69.48
72395;BME280;60384;48.152;11.614;2023-07-31T13:29:06;95369.09;;;24.41;69.34
72395;BME280;60384;48.152;11.614;2023-07-31T13:32:08;95369.50;;;24.40;69.20
72395;BME280;60384;48.152;11.614;2023-07-31T13:35:09;95363.28;;;24.39;69.22
72395;BME280;60384;48.152;11.614;2023-07-31T13:38:13;95356.50;;;24.74;68.84
72395;BME280;60384;48.152;11.614;2023-07-31T13:41:15;95361.69;;;25.15;68.61
72395;BME280;60384;48.152;11.614;2023-07-31T13:44:16;95351.69;;;25.28;68.26
72395;BME280;60384;48.152;11.614;2023-07-31T13:47:18;95350.25;;;25.20;68.80
72395;BME280;60384;48.152;11.614;2023-07-31T13:50:19;95342.16;;;25.13;68.67
72395;BME280;60384;48.152;11.614;2023-07-31T13:53:24;95335.31;;;25.25;68.43
72395;BME280;60384;48.152;11.614;2023-07-31T13:56:25;95345.56;;;25.40;68.40
72395;BME280;60384;48.152;11.614;2023-07-31T13:59:27;95330.22;;;25.46;68.08
72395;BME280;60384;48.152;11.614;2023-07-31T14:02:28;95332.47;;;25.32;68.23
72395;BME280;60384;48.152;11.614;2023-07-31T14:05:30;95326.22;;;25.31;68.45
72395;BME280;60384;48.152;11.614;2023-07-31T14:08:33;95326.84;;;25.39;68.35
72395;BME280;60384;48.152;11.614;2023-07-31T14:11:34;95319.50;;;25.56;67.70
72395;BME280;60384;48.152;11.614;2023-07-31T14:14:36;95319.97;;;25.50;67.89
72395;BME280;60384;48.152;11.614;2023-07-31T14:17:37;95328.03;;;25.38;67.81
72395;BME280;60384;48.152;11.614;2023-07-31T14:20:39;95328.66;;;25.26;68.25
72395;BME280;60384;48.152;11.614;2023-07-31T14:23:42;95336.66;;;25.17;68.37
72395;BME280;60384;48.152;11.614;2023-07-31T14:26:43;95331.25;;;25.13;67.95
72395;BME280;60384;48.152;11.614;2023-07-31T14:29:45;95326.53;;;25.14;68.20
72395;BME280;60384;48.152;11.614;2023-07-31T14:32:53;95331.31;;;25.09;67.93
72395;BME280;60384;48.152;11.614;2023-07-31T14:35:55;95326.66;;;25.06;67.76
72395;BME280;60384;48.152;11.614;2023-07-31T14:38:57;95326.22;;;25.12;67.62
72395;BME280;60384;48.152;11.614;2023-07-31T14:41:59;95311.13;;;25.23;67.61
72395;BME280;60384;48.152;11.614;2023-07-31T14:45:00;95312.75;;;25.40;66.88
72395;BME280;60384;48.152;11.614;2023-07-31T14:48:02;95309.38;;;25.52;66.79
72395;BME280;60384;48.152;11.614;2023-07-31T14:51:04;95318.09;;;25.67;66.75
72395;BME280;60384;48.152;11.614;2023-07-31T14:54:07;95316.59;;;25.82;66.65
72395;BME280;60384;48.152;11.614;2023-07-31T14:57:09;95306.13;;;25.97;66.29
72395;BME280;60384;48.152;11.614;2023-07-31T15:00:10;95314.53;;;26.06;66.42
72395;BME280;60384;48.152;11.614;2023-07-31T15:03:12;95307.66;;;25.98;66.57
72395;BME280;60384;48.152;11.614;2023-07-31T15:06:14;95299.13;;;25.76;66.50
72395;BME280;60384;48.152;11.614;2023-07-31T15:09:16;95313.56;;;25.61;66.82
72395;BME280;60384;48.152;11.614;2023-07-31T15:12:18;95306.84;;;25.42;67.19
72395;BME280;60384;48.152;11.614;2023-07-31T15:15:20;95302.09;;;25.26;67.47
72395;BME280;60384;48.152;11.614;2023-07-31T15:18:21;95305.44;;;25.14;67.17
72395;BME280;60384;48.152;11.614;2023-07-31T15:21:23;95306.06;;;25.02;67.26
72395;BME280;60384;48.152;11.614;2023-07-31T15:24:26;95301.91;;;24.94;67.31
72395;BME280;60384;48.152;11.614;2023-07-31T15:27:27;95305.47;;;24.91;67.18
72395;BME280;60384;48.152;11.614;2023-07-31T15:30:29;95305.94;;;24.86;66.89
72395;BME280;60384;48.152;11.614;2023-07-31T15:33:30;95304.16;;;24.76;67.01
72395;BME280;60384;48.152;11.614;2023-07-31T15:36:32;95305.41;;;24.71;67.01
72395;BME280;60384;48.152;11.614;2023-07-31T15:39:35;95308.25;;;24.64;66.96
72395;BME280;60384;48.152;11.614;2023-07-31T15:42:37;95302.13;;;24.56;66.73
72395;BME280;60384;48.152;11.614;2023-07-31T15:45:40;95307.78;;;24.46;66.63
72395;BME280;60384;48.152;11.614;2023-07-31T15:48:41;95303.25;;;24.36;66.54
72395;BME280;60384;48.152;11.614;2023-07-31T15:51:43;95297.13;;;24.28;66.46
72395;BME280;60384;48.152;11.614;2023-07-31T15:54:47;95301.47;;;24.25;66.40